Time;durP1;ratioP1;P1;durP2;ratioP2;P2;SDS_P1;SDS_P2;PMS_P1;PMS_P2;Temp;Humidity;BMP_temperature;BMP_pressure;BME280_temperature;BME280_humidity;BME280_pressure;Samples;Min_cycle;Max_cycle;Signal;HPM_P1;HPM_P2
2022/06/07 00:00:50;;;;;;;1.37;1.20;;;22.20;66.70;;;;;;5142980;27;20180;-94
2022/06/07 00:03:16;;;;;;;1.50;1.40;;;22.20;66.70;;;;;;5142920;27;20224;-95
2022/06/07 00:05:43;;;;;;;1.50;1.40;;;22.10;66.60;;;;;;5142866;27;20219;-95
2022/06/07 00:08:12;;;;;;;1.70;1.30;;;22.10;66.70;;;;;;5142793;27;20160;-95
2022/06/07 00:10:38;;;;;;;1.50;1.40;;;22.10;66.70;;;;;;5142865;27;20160;-95
2022/06/07 00:13:04;;;;;;;1.77;1.30;;;22.10;66.80;;;;;;5142681;27;20185;-94
2022/06/07 00:15:30;;;;;;;1.83;1.50;;;22.10;66.80;;;;;;5142721;27;20182;-94
2022/06/07 00:17:56;;;;;;;2.33;1.43;;;22.10;66.80;;;;;;5142793;27;20168;-95
2022/06/07 00:20:22;;;;;;;1.83;1.30;;;22.10;66.90;;;;;;5142723;27;20167;-94
2022/06/07 00:22:48;;;;;;;1.50;1.40;;;22.10;66.90;;;;;;5142621;27;20172;-94
2022/06/07 00:25:15;;;;;;;1.50;1.40;;;22.10;67.00;;;;;;5142684;27;20195;-94
2022/06/07 00:27:42;;;;;;;1.83;1.40;;;22.10;67.00;;;;;;5142654;27;20256;-95
2022/06/07 00:30:11;;;;;;;1.50;1.40;;;22.10;67.00;;;;;;5142709;27;20162;-94
2022/06/07 00:32:37;;;;;;;1.50;1.40;;;22.00;66.90;;;;;;5142622;27;20221;-95
2022/06/07 00:35:04;;;;;;;1.50;1.40;;;22.00;67.00;;;;;;5142542;27;20192;-96
2022/06/07 00:37:30;;;;;;;2.40;1.47;;;22.00;67.10;;;;;;5146790;27;20173;-95
2022/06/07 00:39:56;;;;;;;1.50;1.37;;;22.00;67.10;;;;;;5146842;27;20159;-96
2022/06/07 00:42:22;;;;;;;1.50;1.40;;;22.00;67.10;;;;;;5146664;27;20175;-96
2022/06/07 00:44:48;;;;;;;1.90;1.57;;;22.00;67.20;;;;;;5146665;27;20171;-95
2022/06/07 00:47:23;;;;;;;1.37;1.20;;;22.00;67.30;;;;;;5146580;27;20182;-96
2022/06/07 00:50:04;;;;;;;1.80;1.57;;;22.00;67.30;;;;;;5146632;27;20161;-96
2022/06/07 00:52:31;;;;;;;1.97;1.60;;;21.90;67.20;;;;;;5146512;27;20206;-96
2022/06/07 00:54:58;;;;;;;1.50;1.40;;;21.90;67.20;;;;;;5146365;27;20193;-96
2022/06/07 00:57:24;;;;;;;1.60;1.30;;;21.90;67.20;;;;;;5146368;27;20193;-96
2022/06/07 00:59:51;;;;;;;1.50;1.30;;;21.90;67.30;;;;;;5146353;27;20175;-96
2022/06/07 01:02:18;;;;;;;1.73;1.53;;;21.90;67.30;;;;;;5146302;27;20169;-96
2022/06/07 01:04:44;;;;;;;1.70;1.60;;;21.90;67.40;;;;;;5146218;27;20162;-96
2022/06/07 01:12:39;;;;;;;1.40;1.30;;;21.80;67.30;;;;;;5163842;27;20144;-96
2022/06/07 01:15:06;;;;;;;2.23;1.60;;;21.80;67.30;;;;;;5146053;27;20247;-95
2022/06/07 01:17:31;;;;;;;1.70;1.60;;;21.80;67.40;;;;;;5146034;27;20161;-95
2022/06/07 01:19:57;;;;;;;1.50;1.40;;;21.80;67.40;;;;;;5145970;27;20167;-96
2022/06/07 01:22:23;;;;;;;1.63;1.53;;;21.80;67.40;;;;;;5145986;27;20162;-96
2022/06/07 01:24:49;;;;;;;1.60;1.50;;;21.80;67.40;;;;;;5145842;27;20165;-95
2022/06/07 01:27:15;;;;;;;1.33;1.20;;;21.70;67.30;;;;;;5145893;27;20194;-95
2022/06/07 01:29:42;;;;;;;1.57;1.30;;;21.70;67.30;;;;;;5145813;27;20154;-96
2022/06/07 01:32:10;;;;;;;2.63;1.50;;;21.70;67.40;;;;;;5145820;27;20184;-96
2022/06/07 01:34:39;;;;;;;1.80;1.60;;;21.70;67.40;;;;;;5145644;27;20191;-95
2022/06/07 01:37:05;;;;;;;1.60;1.43;;;21.70;67.40;;;;;;5145701;27;20165;-96
2022/06/07 01:42:15;;;;;;;1.30;1.20;;;21.70;67.50;;;;;;5163333;27;20154;-96
2022/06/07 01:44:47;;;;;;;1.30;1.20;;;21.70;67.50;;;;;;5145400;27;20248;-96
2022/06/07 01:47:17;;;;;;;1.50;1.40;;;21.70;67.60;;;;;;5144505;27;20173;-96
2022/06/07 01:49:44;;;;;;;1.63;1.40;;;21.70;67.60;;;;;;5145398;27;20175;-95
2022/06/07 01:52:11;;;;;;;1.40;1.30;;;21.70;67.60;;;;;;5145237;27;20262;-95
2022/06/07 01:54:37;;;;;;;2.30;1.40;;;21.60;67.50;;;;;;5145162;27;20204;-95
2022/06/07 01:57:05;;;;;;;1.90;1.63;;;21.60;67.50;;;;;;5145262;27;20199;-95
2022/06/07 01:59:32;;;;;;;1.40;1.30;;;21.60;67.50;;;;;;5145224;27;20155;-96
2022/06/07 02:01:58;;;;;;;2.40;1.37;;;21.60;67.50;;;;;;5145086;27;20165;-96
2022/06/07 02:04:25;;;;;;;1.50;1.40;;;21.60;67.60;;;;;;5145117;27;20146;-96
2022/06/07 02:06:51;;;;;;;1.50;1.40;;;21.60;67.60;;;;;;5145011;27;20168;-95
2022/06/07 02:09:17;;;;;;;2.07;1.40;;;21.60;67.60;;;;;;5145001;27;20163;-95
2022/06/07 02:11:43;;;;;;;1.40;1.23;;;21.50;67.50;;;;;;5144980;27;20171;-94
2022/06/07 02:14:10;;;;;;;1.63;1.30;;;21.50;67.50;;;;;;5144816;27;20197;-95
2022/06/07 02:16:37;;;;;;;1.53;1.43;;;21.50;67.50;;;;;;5144798;27;20150;-96
2022/06/07 02:19:07;;;;;;;2.13;1.60;;;21.50;67.60;;;;;;5144756;27;20219;-96
2022/06/07 02:21:36;;;;;;;1.40;1.30;;;21.50;67.50;;;;;;5162175;27;20142;-96
2022/06/07 02:24:04;;;;;;;1.23;1.13;;;21.50;67.60;;;;;;5144802;27;20150;-96
2022/06/07 02:26:55;;;;;;;1.43;1.30;;;21.50;67.50;;;;;;5161379;27;20189;-96
2022/06/07 02:29:25;;;;;;;3.87;1.30;;;21.50;67.50;;;;;;5162090;27;20143;-96
2022/06/07 02:32:22;;;;;;;3.13;1.30;;;21.40;67.50;;;;;;5144583;27;20151;-96
2022/06/07 02:34:53;;;;;;;1.70;1.60;;;21.40;67.50;;;;;;5079339;28;20199;-96
2022/06/07 02:37:20;;;;;;;1.20;1.10;;;21.40;67.40;;;;;;5144460;27;20146;-96
2022/06/07 02:39:46;;;;;;;1.57;1.30;;;21.40;67.50;;;;;;5144436;27;20168;-96
2022/06/07 02:42:16;;;;;;;1.17;1.07;;;21.40;67.40;;;;;;5144395;27;20178;-96
2022/06/07 02:44:42;;;;;;;1.40;1.30;;;21.40;67.40;;;;;;5144221;27;20151;-95
2022/06/07 02:47:08;;;;;;;1.40;1.10;;;21.40;67.30;;;;;;5144080;27;20264;-96
2022/06/07 02:49:34;;;;;;;1.37;1.27;;;21.40;67.40;;;;;;5144206;27;20162;-94
2022/06/07 02:52:00;;;;;;;1.30;1.20;;;21.40;67.30;;;;;;5144016;27;20178;-95
2022/06/07 02:54:26;;;;;;;1.37;1.20;;;21.40;67.30;;;;;;5144007;27;20210;-95
2022/06/07 02:56:52;;;;;;;2.57;1.27;;;21.40;67.30;;;;;;5144057;27;20154;-95
2022/06/07 03:06:03;;;;;;;1.43;1.27;;;21.40;67.30;;;;;;5161599;27;20186;-95
2022/06/07 03:08:30;;;;;;;1.47;1.30;;;21.30;67.20;;;;;;5143845;27;20191;-96
2022/06/07 03:10:56;;;;;;;1.33;1.13;;;21.30;67.20;;;;;;5143735;27;20166;-95
2022/06/07 03:13:22;;;;;;;3.03;1.27;;;21.30;67.20;;;;;;5143428;27;20224;-96
2022/06/07 03:15:48;;;;;;;1.47;1.37;;;21.30;67.20;;;;;;5143665;27;20161;-94
2022/06/07 03:18:14;;;;;;;1.37;1.27;;;21.30;67.20;;;;;;5143193;27;20157;-95
2022/06/07 03:20:41;;;;;;;1.40;1.17;;;21.30;67.30;;;;;;5143582;27;20177;-95
2022/06/07 03:23:07;;;;;;;1.40;1.23;;;21.30;67.30;;;;;;5143583;27;20177;-95
2022/06/07 03:25:33;;;;;;;1.37;1.20;;;21.30;67.20;;;;;;5143526;27;20158;-96
2022/06/07 03:27:59;;;;;;;2.93;1.30;;;21.30;67.20;;;;;;5143493;27;20160;-95
2022/06/07 03:30:28;;;;;;;1.30;1.20;;;21.30;67.10;;;;;;5143442;27;20162;-96
2022/06/07 03:32:54;;;;;;;1.20;1.10;;;21.30;67.00;;;;;;5143328;27;20157;-96
2022/06/07 03:35:20;;;;;;;1.90;1.20;;;21.30;67.00;;;;;;5143360;27;20176;-96
2022/06/07 03:37:45;;;;;;;3.27;1.37;;;21.30;67.60;;;;;;5143368;27;20187;-96
2022/06/07 03:40:14;;;;;;;1.83;1.30;;;21.20;66.80;;;;;;5143240;27;20158;-96
2022/06/07 03:42:41;;;;;;;1.97;1.13;;;21.20;66.80;;;;;;5143227;27;20151;-96
2022/06/07 03:45:07;;;;;;;1.73;1.30;;;21.20;66.70;;;;;;5143033;27;20176;-96
2022/06/07 03:47:34;;;;;;;1.30;1.20;;;21.20;66.70;;;;;;5143234;27;20153;-96
2022/06/07 03:50:00;;;;;;;1.30;1.20;;;21.20;66.60;;;;;;5143129;27;20167;-96
2022/06/07 03:52:26;;;;;;;1.40;1.30;;;21.20;66.50;;;;;;5143080;27;20158;-96
2022/06/07 03:54:53;;;;;;;1.30;1.20;;;21.20;66.50;;;;;;5160622;27;20178;-96
2022/06/07 03:57:18;;;;;;;1.30;1.17;;;21.20;66.40;;;;;;5142980;27;20226;-96
2022/06/07 03:59:44;;;;;;;1.30;1.20;;;21.20;66.40;;;;;;5142976;27;20158;-96
2022/06/07 04:02:11;;;;;;;1.77;1.10;;;21.20;66.40;;;;;;5143021;27;20215;-96
2022/06/07 04:04:37;;;;;;;1.20;1.10;;;21.20;66.30;;;;;;5143015;27;20184;-96
2022/06/07 04:09:50;;;;;;;1.20;1.03;;;21.20;66.20;;;;;;5160331;27;20184;-96
2022/06/07 04:12:17;;;;;;;1.67;1.10;;;21.20;66.00;;;;;;5142630;27;20242;-96
2022/06/07 04:14:44;;;;;;;1.90;1.23;;;21.20;66.00;;;;;;5142743;27;20194;-96
2022/06/07 04:17:16;;;;;;;1.00;1.00;;;21.30;66.00;;;;;;5142881;27;20339;-96
2022/06/07 04:19:43;;;;;;;2.03;1.40;;;21.20;65.80;;;;;;5142705;27;20222;-96
2022/06/07 04:22:11;;;;;;;1.23;1.13;;;21.20;65.70;;;;;;5142763;27;20181;-96
2022/06/07 04:24:37;;;;;;;1.10;1.00;;;21.20;65.60;;;;;;5142709;27;20178;-96
2022/06/07 04:27:03;;;;;;;1.20;1.10;;;21.30;65.60;;;;;;5142666;27;20175;-95
2022/06/07 04:29:29;;;;;;;1.53;1.17;;;21.30;65.50;;;;;;5142717;27;20211;-96
2022/06/07 04:31:55;;;;;;;1.23;1.10;;;21.30;65.50;;;;;;5142590;27;20150;-96
2022/06/07 04:34:20;;;;;;;1.10;1.00;;;21.30;65.40;;;;;;5142502;27;20194;-96
2022/06/07 04:36:46;;;;;;;1.30;1.10;;;21.30;65.30;;;;;;5142607;27;20158;-96
2022/06/07 04:39:12;;;;;;;1.57;1.13;;;21.30;65.20;;;;;;5142683;27;20161;-95
2022/06/07 04:41:39;;;;;;;1.20;1.10;;;21.30;65.10;;;;;;5142517;27;20157;-95
2022/06/07 04:44:05;;;;;;;1.10;1.00;;;21.30;64.90;;;;;;5142548;27;20172;-96
2022/06/07 04:46:31;;;;;;;1.30;1.03;;;21.30;64.80;;;;;;5142423;27;20212;-96
2022/06/07 04:48:57;;;;;;;1.00;1.00;;;21.30;64.70;;;;;;5142546;27;20161;-96
2022/06/07 04:51:27;;;;;;;1.00;1.00;;;21.40;64.60;;;;;;5142500;27;20171;-96
2022/06/07 04:53:54;;;;;;;1.30;1.10;;;21.40;64.50;;;;;;5142248;27;20194;-96
2022/06/07 04:56:24;;;;;;;1.20;1.10;;;21.40;64.40;;;;;;5142460;27;20151;-96
2022/06/07 04:58:50;;;;;;;1.10;1.00;;;21.40;64.30;;;;;;5142344;27;20164;-95
2022/06/07 05:01:37;;;;;;;1.50;1.07;;;21.40;64.20;;;;;;5142408;27;20245;-96
2022/06/07 05:04:04;;;;;;;1.57;1.10;;;21.50;64.00;;;;;;5142326;27;20157;-95
2022/06/07 05:06:33;;;;;;;1.93;1.10;;;21.50;63.90;;;;;;5142362;27;20157;-96
2022/06/07 05:09:04;;;;;;;1.10;1.00;;;21.50;63.80;;;;;;5142384;27;20157;-96
2022/06/07 05:11:30;;;;;;;1.20;1.10;;;21.60;63.70;;;;;;5142305;27;20161;-96
2022/06/07 05:13:57;;;;;;;1.20;1.10;;;21.60;63.40;;;;;;5142161;27;20201;-96
2022/06/07 05:16:23;;;;;;;1.10;1.00;;;21.70;63.20;;;;;;5142255;27;20157;-96
2022/06/07 05:18:54;;;;;;;1.33;1.03;;;21.70;62.90;;;;;;5142174;27;20213;-96
2022/06/07 05:21:22;;;;;;;1.27;1.17;;;21.80;62.60;;;;;;5142184;27;20149;-95
2022/06/07 05:23:49;;;;;;;1.07;0.97;;;21.80;62.30;;;;;;5144946;27;20152;-96
2022/06/07 05:26:35;;;;;;;1.10;1.00;;;21.90;62.00;;;;;;5145946;27;20173;-96
2022/06/07 05:29:01;;;;;;;1.17;0.90;;;21.90;61.70;;;;;;5145855;27;20262;-96
2022/06/07 05:31:27;;;;;;;0.93;0.93;;;21.90;61.40;;;;;;5145825;27;20150;-96
2022/06/07 05:33:54;;;;;;;1.20;1.10;;;21.90;61.30;;;;;;5145556;27;20189;-95
2022/06/07 05:36:20;;;;;;;2.07;1.03;;;21.90;61.10;;;;;;5145720;27;20154;-95
2022/06/07 05:38:47;;;;;;;1.10;1.00;;;21.90;60.90;;;;;;5145643;27;20149;-95
2022/06/07 05:41:29;;;;;;;1.23;1.03;;;22.00;60.80;;;;;;5145656;27;20288;-94
2022/06/07 05:43:54;;;;;;;0.90;0.90;;;22.00;60.70;;;;;;5145565;27;20177;-96
2022/06/07 05:46:20;;;;;;;1.07;1.00;;;22.00;60.50;;;;;;5145516;27;20184;-95
2022/06/07 05:48:46;;;;;;;1.30;1.07;;;22.00;60.40;;;;;;5145510;27;20157;-94
2022/06/07 05:51:13;;;;;;;1.20;1.00;;;22.00;60.30;;;;;;5145432;27;20150;-95
2022/06/07 05:53:39;;;;;;;1.20;1.10;;;22.00;60.10;;;;;;5145360;27;20191;-94
2022/06/07 05:56:06;;;;;;;1.47;0.90;;;22.00;60.10;;;;;;5145261;27;20145;-91
2022/06/07 05:58:33;;;;;;;1.10;1.00;;;22.10;60.10;;;;;;5145277;27;20175;-94
2022/06/07 06:00:59;;;;;;;1.23;1.00;;;22.10;60.00;;;;;;5145242;27;20150;-95
2022/06/07 06:03:25;;;;;;;1.77;1.10;;;22.10;60.00;;;;;;5145240;27;20264;-94
2022/06/07 06:05:50;;;;;;;1.83;1.27;;;22.20;59.90;;;;;;5145205;27;20176;-95
2022/06/07 06:11:10;;;;;;;4.00;1.10;;;22.20;59.60;;;;;;5162718;27;20144;-96
2022/06/07 06:13:37;;;;;;;2.57;1.23;;;22.20;60.00;;;;;;5144827;27;20196;-95
2022/06/07 06:16:23;;;;;;;3.40;1.20;;;22.20;59.50;;;;;;5144865;27;20184;-94
2022/06/07 06:18:50;;;;;;;3.03;1.30;;;22.30;59.40;;;;;;5143251;27;20229;-96
2022/06/07 06:21:18;;;;;;;2.23;1.20;;;22.30;59.40;;;;;;5144857;27;20157;-95
2022/06/07 06:23:44;;;;;;;3.13;1.50;;;22.30;59.30;;;;;;5144681;27;20158;-95
2022/06/07 06:26:15;;;;;;;1.90;1.17;;;22.30;59.20;;;;;;5144717;27;20214;-95
2022/06/07 06:28:42;;;;;;;2.77;1.30;;;22.30;59.20;;;;;;5144759;27;20162;-96
2022/06/07 06:31:09;;;;;;;4.17;1.60;;;22.30;59.10;;;;;;5144692;27;20174;-96
2022/06/07 06:33:39;;;;;;;2.17;1.20;;;22.30;59.00;;;;;;5144084;27;20199;-96
2022/06/07 06:36:07;;;;;;;2.10;1.10;;;22.40;59.00;;;;;;5144525;27;20161;-96
2022/06/07 06:38:34;;;;;;;2.73;1.27;;;22.40;58.90;;;;;;5144326;27;20181;-95
2022/06/07 06:41:10;;;;;;;2.63;1.27;;;22.50;58.50;;;;;;5144399;27;20165;-93
2022/06/07 06:43:35;;;;;;;1.77;1.30;;;22.60;58.20;;;;;;5144307;27;20178;-95
2022/06/07 06:46:10;;;;;;;2.43;1.20;;;22.90;57.40;;;;;;5144101;27;20219;-94
2022/06/07 06:48:36;;;;;;;6.83;1.70;;;23.50;55.70;;;;;;5143988;27;20234;-94
2022/06/07 06:51:05;;;;;;;3.30;1.40;;;23.90;54.60;;;;;;5143847;27;20162;-96
2022/06/07 06:57:06;;;;;;;1.93;1.13;;;24.50;53.20;;;;;;5161305;27;20177;-95
2022/06/07 06:59:32;;;;;;;2.03;1.10;;;24.60;52.60;;;;;;5143684;27;20185;-96
2022/06/07 07:01:58;;;;;;;3.40;1.30;;;24.80;52.20;;;;;;5143263;27;20187;-95
2022/06/07 07:04:24;;;;;;;3.30;1.20;;;24.90;52.00;;;;;;5142778;27;20161;-95
2022/06/07 07:07:28;;;;;;;4.10;1.30;;;24.90;51.80;;;;;;5142791;27;20158;-95
2022/06/07 07:09:55;;;;;;;2.00;1.10;;;25.00;51.50;;;;;;5142771;27;20161;-95
2022/06/07 07:12:21;;;;;;;4.60;1.50;;;25.00;51.40;;;;;;5142966;27;20195;-95
2022/06/07 07:14:48;;;;;;;4.00;1.48;;;25.10;51.30;;;;;;5142326;27;20185;-96
2022/06/07 07:20:39;;;;;;;3.88;1.45;;;25.20;51.10;;;;;;5161201;27;20152;-96
2022/06/07 07:23:05;;;;;;;3.42;1.42;;;25.20;50.90;;;;;;5143104;27;20150;-96
2022/06/07 07:25:32;;;;;;;3.10;1.20;;;25.30;50.80;;;;;;5143292;27;20191;-96
2022/06/07 07:27:58;;;;;;;3.03;1.42;;;25.40;50.80;;;;;;5143412;27;20161;-96
2022/06/07 07:33:47;;;;;;;2.00;1.20;;;25.40;50.60;;;;;;5154813;22;20235;-6
2022/06/07 07:36:13;;;;;;;1.88;1.02;;;25.50;50.60;;;;;;5130493;27;20158;-5
2022/06/07 07:38:40;;;;;;;2.50;1.33;;;25.50;50.50;;;;;;5129376;27;20200;-6
2022/06/07 07:41:25;;;;;;;1.48;1.10;;;25.50;50.50;;;;;;5130030;27;20157;-5
2022/06/07 07:43:53;;;;;;;2.83;1.20;;;25.50;50.40;;;;;;5111695;27;20169;-5
2022/06/07 07:46:21;;;;;;;1.58;1.13;;;25.60;50.40;;;;;;5111265;27;20192;-6
2022/06/07 07:48:48;;;;;;;2.10;1.30;;;25.50;50.50;;;;;;5129819;27;20580;-6
2022/06/07 07:51:20;;;;;;;2.45;1.13;;;25.40;50.60;;;;;;5111755;27;20166;-6
2022/06/07 07:53:47;;;;;;;2.78;1.20;;;25.20;50.80;;;;;;5110943;27;20201;-7
2022/06/07 07:56:15;;;;;;;1.30;1.20;;;25.20;51.10;;;;;;5112065;27;20183;-6
2022/06/07 07:58:42;;;;;;;1.55;1.20;;;25.20;50.90;;;;;;5110473;27;20246;-5
2022/06/07 08:01:16;;;;;;;2.58;1.33;;;25.20;50.90;;;;;;5129387;27;20419;-5
2022/06/07 08:03:43;;;;;;;1.58;1.20;;;25.40;50.90;;;;;;5129759;27;20187;-7
2022/06/07 08:06:15;;;;;;;1.40;1.23;;;25.40;50.70;;;;;;5130428;27;20206;-7
2022/06/07 08:08:41;;;;;;;2.13;1.30;;;25.50;50.60;;;;;;5130007;27;20165;-6
2022/06/07 08:11:07;;;;;;;1.98;1.20;;;25.50;50.50;;;;;;5115812;28;20447;-6
2022/06/07 08:13:36;;;;;;;2.42;1.20;;;25.60;50.50;;;;;;5136391;27;20209;-5
2022/06/07 08:16:04;;;;;;;1.75;1.10;;;25.50;50.50;;;;;;5117688;28;20169;-6
2022/06/07 08:18:29;;;;;;;2.10;1.20;;;25.40;50.70;;;;;;5130410;27;20169;-7
2022/06/07 08:21:01;;;;;;;2.00;1.20;;;25.30;50.90;;;;;;5110410;28;20424;-6
2022/06/07 08:23:28;;;;;;;1.80;1.20;;;25.30;51.00;;;;;;5110915;28;20169;-6
2022/06/07 08:25:55;;;;;;;2.47;1.30;;;25.40;50.90;;;;;;5129530;28;20326;-8
2022/06/07 08:28:21;;;;;;;1.60;1.15;;;25.40;50.80;;;;;;5110758;28;20473;-7
2022/06/07 08:30:47;;;;;;;2.08;1.20;;;25.20;50.90;;;;;;5130530;28;20173;-6
2022/06/07 08:38:44;;;;;;;1.30;1.00;;;25.00;51.40;;;;;;5075276;28;20516;-7
2022/06/07 08:41:22;;;;;;;1.80;1.10;;;24.90;51.50;;;;;;5128569;28;20284;-5
2022/06/07 08:43:48;;;;;;;1.27;1.00;;;24.90;51.70;;;;;;5110124;28;20173;-6
2022/06/07 08:46:18;;;;;;;2.73;1.20;;;24.90;51.70;;;;;;5110760;28;20177;-5
2022/06/07 08:48:45;;;;;;;1.63;1.20;;;24.80;51.70;;;;;;5110910;28;20634;-6
2022/06/07 08:51:29;;;;;;;2.87;1.10;;;24.80;51.80;;;;;;5128187;28;20209;-6
2022/06/07 08:54:04;;;;;;;1.47;1.10;;;24.70;51.80;;;;;;5110460;28;20464;-6
2022/06/07 08:56:34;;;;;;;1.63;1.17;;;24.80;51.90;;;;;;5111407;27;20228;-7
2022/06/07 08:59:11;;;;;;;1.83;1.20;;;24.80;51.90;;;;;;5113411;27;20185;-6
2022/06/07 09:01:48;;;;;;;2.00;1.10;;;24.70;51.90;;;;;;5113368;27;20169;-6
2022/06/07 09:04:32;;;;;;;1.50;1.00;;;24.70;51.90;;;;;;5132310;27;20219;-6
2022/06/07 09:07:03;;;;;;;1.73;1.27;;;24.70;51.90;;;;;;5112390;27;20643;-6
2022/06/07 09:12:23;;;;;;;2.63;1.20;;;24.60;52.10;;;;;;5131209;27;20339;-6
2022/06/07 09:14:53;;;;;;;1.27;1.10;;;24.50;52.20;;;;;;5130588;27;20476;-6
2022/06/07 09:17:38;;;;;;;1.57;1.20;;;24.50;52.30;;;;;;5131419;27;20165;-5
2022/06/07 09:20:18;;;;;;;1.97;1.10;;;24.50;52.30;;;;;;5132419;27;20173;-6
2022/06/07 09:23:00;;;;;;;2.70;1.33;;;24.40;52.40;;;;;;5130988;27;20161;-6
2022/06/07 09:25:38;;;;;;;1.30;1.00;;;24.40;52.40;;;;;;5111982;27;20177;-5
2022/06/07 09:28:10;;;;;;;1.10;1.00;;;24.40;52.50;;;;;;5130855;27;20170;-6
2022/06/07 09:30:43;;;;;;;1.80;1.10;;;24.40;52.50;;;;;;5131442;27;20208;-7
2022/06/07 09:33:42;;;;;;;1.77;1.37;;;24.40;52.50;;;;;;5113088;27;20537;-6
2022/06/07 09:36:21;;;;;;;1.63;1.30;;;24.40;52.50;;;;;;5130565;27;20176;-5
2022/06/07 09:38:52;;;;;;;1.50;1.10;;;24.40;52.50;;;;;;5113938;27;20625;-6
2022/06/07 09:41:52;;;;;;;1.93;1.20;;;24.40;52.50;;;;;;5131705;27;20520;-6
2022/06/07 09:44:35;;;;;;;2.97;1.10;;;24.40;52.60;;;;;;5086803;27;20192;-6
2022/06/07 09:47:11;;;;;;;3.03;1.00;;;24.30;52.70;;;;;;5131363;27;20257;-6
2022/06/07 09:49:43;;;;;;;1.33;1.17;;;24.30;52.70;;;;;;5131337;27;20169;-6
2022/06/07 09:52:21;;;;;;;1.30;1.10;;;24.30;52.70;;;;;;5131018;27;20553;-7
2022/06/07 09:54:51;;;;;;;1.53;1.13;;;24.30;52.80;;;;;;5129514;27;20263;-7
2022/06/07 09:57:37;;;;;;;1.40;1.13;;;24.30;52.70;;;;;;5131288;27;20272;-6
2022/06/07 10:00:06;;;;;;;4.27;1.37;;;24.30;52.80;;;;;;5131199;27;20171;-6
2022/06/07 10:02:46;;;;;;;3.40;1.47;;;24.30;52.80;;;;;;5131845;27;20412;-6
2022/06/07 10:05:34;;;;;;;1.87;1.17;;;24.30;52.80;;;;;;5131594;27;20197;-5
2022/06/07 10:08:24;;;;;;;3.13;1.17;;;24.40;52.80;;;;;;5112318;28;20196;-5
2022/06/07 10:11:22;;;;;;;2.47;1.20;;;24.40;52.80;;;;;;5130743;27;20181;-7
2022/06/07 10:14:20;;;;;;;1.67;1.13;;;24.40;52.90;;;;;;5085389;27;20316;-5
2022/06/07 10:17:01;;;;;;;1.73;1.27;;;24.40;52.90;;;;;;5096016;27;20177;-6
2022/06/07 10:20:08;;;;;;;1.90;1.13;;;24.40;52.90;;;;;;5110942;27;20177;-7
2022/06/07 10:23:01;;;;;;;3.40;1.43;;;24.40;52.90;;;;;;5095775;27;20173;-6
2022/06/07 10:25:38;;;;;;;3.17;1.20;;;24.40;52.90;;;;;;5129813;27;20178;-7
2022/06/07 10:28:12;;;;;;;2.07;1.10;;;24.40;52.90;;;;;;5112465;27;20557;-7
2022/06/07 10:30:57;;;;;;;1.80;1.00;;;24.40;52.90;;;;;;5131909;27;20192;-5
2022/06/07 10:33:25;;;;;;;2.53;1.30;;;24.50;53.00;;;;;;5131040;27;20253;-6
2022/06/07 10:36:15;;;;;;;2.70;1.13;;;24.50;53.00;;;;;;5128394;27;20419;-5
2022/06/07 10:38:57;;;;;;;1.40;1.03;;;24.50;53.00;;;;;;5130810;27;20526;-5
2022/06/07 10:41:57;;;;;;;1.53;1.20;;;24.50;53.10;;;;;;5129402;27;20166;-6
2022/06/07 10:44:34;;;;;;;2.10;1.20;;;24.50;53.10;;;;;;5129642;27;20373;-5
2022/06/07 10:47:18;;;;;;;3.63;1.30;;;24.40;53.10;;;;;;5130419;27;20260;-6
2022/06/07 10:49:57;;;;;;;1.97;1.20;;;24.40;53.30;;;;;;5112102;27;20208;-5
2022/06/07 10:52:32;;;;;;;2.10;1.23;;;24.40;53.30;;;;;;5130001;27;20173;-7
2022/06/07 10:55:09;;;;;;;2.10;1.20;;;24.40;53.30;;;;;;5128763;27;20235;-6
2022/06/07 10:58:09;;;;;;;2.90;1.30;;;24.40;53.40;;;;;;5129397;27;20165;-5
2022/06/07 11:00:44;;;;;;;1.53;1.00;;;24.40;53.50;;;;;;5130174;27;20165;-6
2022/06/07 11:03:33;;;;;;;1.50;1.23;;;24.40;53.50;;;;;;5129639;27;20436;-5
2022/06/07 11:09:19;;;;;;;1.23;1.10;;;24.40;53.40;;;;;;5129102;27;20185;-5
2022/06/07 11:11:47;;;;;;;2.20;1.40;;;24.40;53.50;;;;;;5129084;27;20172;-6
2022/06/07 11:14:16;;;;;;;2.17;1.20;;;24.50;53.50;;;;;;5110117;27;20570;-6
2022/06/07 11:17:01;;;;;;;1.90;1.17;;;24.40;53.50;;;;;;5113570;27;20478;-6
2022/06/07 11:19:26;;;;;;;2.17;1.20;;;24.40;53.50;;;;;;5129093;27;20190;-6
2022/06/07 11:22:00;;;;;;;1.27;1.10;;;24.40;53.60;;;;;;5129143;27;20336;-6
2022/06/07 11:24:30;;;;;;;1.50;1.13;;;24.40;53.60;;;;;;5112103;27;20181;-6
2022/06/07 11:26:55;;;;;;;2.47;1.20;;;24.40;53.70;;;;;;5128209;27;20189;-6
2022/06/07 11:29:30;;;;;;;1.90;1.20;;;24.40;53.70;;;;;;5128438;27;20447;-6
2022/06/07 11:31:57;;;;;;;1.90;1.23;;;24.40;53.80;;;;;;5127730;27;20271;-5
2022/06/07 11:34:31;;;;;;;1.87;1.30;;;24.40;53.80;;;;;;5128514;27;20216;-6
2022/06/07 11:37:00;;;;;;;2.30;1.30;;;24.40;53.80;;;;;;5128201;27;20165;-4
2022/06/07 11:39:54;;;;;;;2.43;1.30;;;24.40;53.80;;;;;;5128731;27;20473;-5
2022/06/07 11:42:31;;;;;;;2.43;1.33;;;24.40;53.80;;;;;;5127122;27;20573;-7
2022/06/07 11:44:58;;;;;;;1.37;1.03;;;24.40;54.20;;;;;;5110481;27;20200;-6
2022/06/07 11:47:33;;;;;;;2.33;1.20;;;24.40;53.80;;;;;;5127396;27;20440;-5
2022/06/07 11:50:03;;;;;;;2.60;1.10;;;24.40;53.80;;;;;;5128740;27;20170;-5
2022/06/07 11:52:34;;;;;;;1.23;1.10;;;24.50;53.90;;;;;;5130113;27;20216;-7
2022/06/07 11:55:16;;;;;;;2.03;1.10;;;24.50;53.90;;;;;;5128867;27;20304;-6
2022/06/07 11:57:56;;;;;;;2.17;1.20;;;24.50;53.90;;;;;;5111280;27;20174;-7
2022/06/07 12:00:22;;;;;;;1.20;1.10;;;24.50;53.90;;;;;;5129703;27;20177;-5
2022/06/07 12:02:57;;;;;;;2.40;1.10;;;24.50;53.90;;;;;;5109964;27;20204;-6
2022/06/07 12:05:46;;;;;;;1.63;1.00;;;24.50;53.90;;;;;;5109868;27;20176;-6
2022/06/07 12:08:28;;;;;;;2.97;1.10;;;24.50;53.90;;;;;;5127915;27;20176;-5
2022/06/07 12:11:29;;;;;;;1.43;1.00;;;24.50;53.90;;;;;;5110633;28;20170;-6
2022/06/07 12:13:56;;;;;;;1.50;1.20;;;24.50;53.90;;;;;;5127833;27;20212;-6
2022/06/07 12:16:44;;;;;;;1.53;1.17;;;24.50;53.90;;;;;;5127674;27;20435;-5
2022/06/07 12:19:22;;;;;;;1.40;1.20;;;24.50;53.90;;;;;;5108493;27;20169;-5
2022/06/07 12:21:54;;;;;;;3.53;1.30;;;24.50;54.00;;;;;;5127411;28;20305;-5
2022/06/07 12:24:21;;;;;;;1.83;1.10;;;24.50;54.00;;;;;;5108550;28;20466;-6
2022/06/07 12:26:47;;;;;;;2.20;1.00;;;24.50;54.00;;;;;;5108845;28;20197;-6
2022/06/07 12:29:29;;;;;;;2.03;1.10;;;24.50;54.10;;;;;;5108432;28;20346;-7
2022/06/07 12:32:01;;;;;;;1.93;1.30;;;24.50;54.10;;;;;;5129588;27;20181;-6
2022/06/07 12:34:33;;;;;;;1.80;1.10;;;24.50;54.10;;;;;;5132870;27;20440;-5
2022/06/07 12:37:08;;;;;;;1.77;1.20;;;24.50;54.10;;;;;;5131897;27;20176;-6
2022/06/07 12:40:00;;;;;;;1.37;1.00;;;24.50;54.50;;;;;;5132074;27;20169;-6
2022/06/07 12:42:32;;;;;;;2.07;1.00;;;24.50;54.20;;;;;;5113424;27;20181;-6
2022/06/07 12:45:17;;;;;;;1.47;0.90;;;24.50;54.20;;;;;;5132518;27;20423;-6
2022/06/07 12:47:44;;;;;;;1.60;1.33;;;24.50;54.20;;;;;;5131445;27;20178;-7
2022/06/07 12:50:37;;;;;;;1.90;1.27;;;24.50;54.20;;;;;;5131334;27;20204;-6
2022/06/07 12:53:04;;;;;;;1.47;1.03;;;24.50;54.30;;;;;;5131805;27;20234;-6
2022/06/07 12:55:32;;;;;;;1.20;1.10;;;24.50;54.30;;;;;;5114049;27;20217;-5
2022/06/07 12:58:14;;;;;;;2.23;1.20;;;24.50;54.30;;;;;;5113751;27;20245;-6
2022/06/07 13:00:43;;;;;;;1.90;1.20;;;24.50;54.40;;;;;;5132542;27;20159;-8
2022/06/07 13:03:32;;;;;;;2.17;1.00;;;24.50;54.50;;;;;;5132789;27;20166;-6
2022/06/07 13:06:18;;;;;;;1.10;1.00;;;24.50;54.50;;;;;;5112882;27;20518;-6
2022/06/07 13:08:57;;;;;;;1.90;1.00;;;24.50;54.60;;;;;;5130968;27;20166;-6
2022/06/07 13:11:23;;;;;;;1.63;1.10;;;24.40;54.60;;;;;;5131135;27;20172;-6
2022/06/07 13:13:51;;;;;;;1.53;1.20;;;24.40;54.70;;;;;;5112635;27;20478;-7
2022/06/07 13:16:20;;;;;;;1.57;1.13;;;24.40;54.70;;;;;;5131547;27;20211;-6
2022/06/07 13:19:21;;;;;;;1.13;1.03;;;24.40;54.70;;;;;;5113895;27;20181;-7
2022/06/07 13:21:52;;;;;;;2.33;1.23;;;24.40;54.80;;;;;;5076311;27;20190;-7
2022/06/07 13:24:46;;;;;;;2.10;1.17;;;24.40;54.80;;;;;;5131431;27;20172;-6
2022/06/07 13:27:33;;;;;;;1.23;1.13;;;24.40;54.90;;;;;;5117508;27;20395;-5
2022/06/07 13:30:00;;;;;;;1.43;1.10;;;24.40;54.90;;;;;;5131348;27;20439;-5
2022/06/07 13:32:27;;;;;;;1.43;1.13;;;24.40;54.90;;;;;;5132101;27;20179;-6
2022/06/07 13:34:59;;;;;;;1.67;0.93;;;24.30;55.00;;;;;;5131912;27;20203;-5
2022/06/07 13:37:26;;;;;;;2.07;1.10;;;24.30;55.00;;;;;;5132264;27;20171;-7
2022/06/07 13:40:01;;;;;;;1.47;1.07;;;24.30;55.00;;;;;;5130315;27;20196;-6
2022/06/07 13:42:35;;;;;;;1.37;1.10;;;24.30;55.10;;;;;;5112125;27;20435;-5
2022/06/07 13:45:13;;;;;;;1.90;1.23;;;24.30;55.10;;;;;;5111556;27;20221;-5
2022/06/07 13:47:42;;;;;;;1.47;1.10;;;24.30;55.10;;;;;;5129330;27;20651;-5
2022/06/07 13:53:24;;;;;;;1.60;1.30;;;24.30;55.20;;;;;;5130178;27;20444;-6
2022/06/07 13:56:05;;;;;;;2.00;1.17;;;24.30;55.20;;;;;;5111025;27;20264;-5
2022/06/07 13:58:35;;;;;;;1.53;1.13;;;24.30;55.30;;;;;;5130596;27;20603;-6